Terminal Aerodrome Forecast
Issued by NWS Portland, ME

Home | Current Version | Previous Version | Text Only | Print | Product List | Glossary On
Versions: 1 2 3 4 5 6 7 8 9 10 11 12 13 14 15 16 17
075
FTUS41 KGYX 181737
TAFCON
TAF
KCON 181737Z 1818/1918 00000KT 1SM -SN OVC025
     FM181900 VRB03KT 2SM -SHSN OVC025
     FM182100 00000KT 4SM -SN BR OVC025
     FM190600 00000KT P6SM BKN050=

USA.gov is the U.S. government's official web portal to all federal, state and local government web resources and services.